Flugplatz Grefrath-Niershorst

Für EDLF sind keine METAR/TAF Berichte vorhanden.
Es werden die Flugwettermeldungen vom Flugplatz Mönchengladbach in 15 km Entfernung angezeigt.

Bericht für EDLN

vom 28.02. um 03:20 UTC

Wind 7 kt aus 250°

Sichtweite 10 km oder mehr

aufgebrochene Bewölkung in 3900 ft

Temperatur 2.0°C

Taupunkt 0.0°C

Luftfeuchtigkeit 87%

Luftdruck 1014 hPa

EDLN 280320Z AUTO 25007KT 220V300 9999 // BKN039/// 02/00 Q1014 REMARK ATIS X
Keine Prognose (TAF) verfügbar.
Impressum